sensor_id;sensor_type;location;lat;lon;timestamp;P1;durP1;ratioP1;P2;durP2;ratioP2
568;SDS011;269;48.884;9.192;2023-12-20T00:02:00;2.58;;;2.38;;
568;SDS011;269;48.884;9.192;2023-12-20T00:04:27;2.38;;;2.17;;
568;SDS011;269;48.884;9.192;2023-12-20T00:06:54;2.33;;;2.22;;
568;SDS011;269;48.884;9.192;2023-12-20T00:09:22;2.30;;;2.10;;
568;SDS011;269;48.884;9.192;2023-12-20T00:11:48;2.13;;;1.98;;
568;SDS011;269;48.884;9.192;2023-12-20T00:14:15;2.20;;;2.00;;
568;SDS011;269;48.884;9.192;2023-12-20T00:16:43;2.10;;;2.00;;
568;SDS011;269;48.884;9.192;2023-12-20T00:19:09;2.50;;;2.30;;
568;SDS011;269;48.884;9.192;2023-12-20T00:21:36;2.17;;;2.08;;
568;SDS011;269;48.884;9.192;2023-12-20T00:24:03;1.90;;;1.80;;
568;SDS011;269;48.884;9.192;2023-12-20T00:26:30;2.33;;;2.08;;
568;SDS011;269;48.884;9.192;2023-12-20T00:28:57;2.40;;;2.20;;
568;SDS011;269;48.884;9.192;2023-12-20T00:31:24;2.10;;;1.95;;
568;SDS011;269;48.884;9.192;2023-12-20T00:33:52;2.80;;;2.10;;
568;SDS011;269;48.884;9.192;2023-12-20T00:36:18;2.00;;;1.90;;
568;SDS011;269;48.884;9.192;2023-12-20T00:38:45;3.03;;;2.30;;
568;SDS011;269;48.884;9.192;2023-12-20T00:41:11;2.88;;;2.38;;
568;SDS011;269;48.884;9.192;2023-12-20T00:43:38;2.45;;;2.25;;
568;SDS011;269;48.884;9.192;2023-12-20T00:46:04;2.40;;;2.20;;
568;SDS011;269;48.884;9.192;2023-12-20T00:48:31;2.70;;;2.50;;
568;SDS011;269;48.884;9.192;2023-12-20T00:50:59;2.67;;;2.45;;
568;SDS011;269;48.884;9.192;2023-12-20T00:53:25;2.60;;;2.40;;
568;SDS011;269;48.884;9.192;2023-12-20T00:55:52;2.50;;;2.30;;
568;SDS011;269;48.884;9.192;2023-12-20T00:58:19;3.00;;;2.80;;
568;SDS011;269;48.884;9.192;2023-12-20T01:00:45;2.78;;;2.58;;
568;SDS011;269;48.884;9.192;2023-12-20T01:03:12;3.50;;;2.60;;
568;SDS011;269;48.884;9.192;2023-12-20T01:05:40;2.35;;;2.15;;
568;SDS011;269;48.884;9.192;2023-12-20T01:08:08;2.83;;;2.53;;
568;SDS011;269;48.884;9.192;2023-12-20T01:10:34;2.33;;;2.13;;
568;SDS011;269;48.884;9.192;2023-12-20T01:13:01;2.97;;;2.72;;
568;SDS011;269;48.884;9.192;2023-12-20T01:15:27;2.88;;;2.67;;
568;SDS011;269;48.884;9.192;2023-12-20T01:17:54;2.88;;;2.63;;
568;SDS011;269;48.884;9.192;2023-12-20T01:20:22;2.80;;;2.60;;
568;SDS011;269;48.884;9.192;2023-12-20T01:22:48;3.22;;;2.92;;
568;SDS011;269;48.884;9.192;2023-12-20T01:25:16;2.90;;;2.70;;
568;SDS011;269;48.884;9.192;2023-12-20T01:27:44;2.70;;;2.50;;
568;SDS011;269;48.884;9.192;2023-12-20T01:30:10;2.80;;;2.60;;
568;SDS011;269;48.884;9.192;2023-12-20T01:32:37;3.30;;;3.00;;
568;SDS011;269;48.884;9.192;2023-12-20T01:35:04;3.58;;;3.28;;
568;SDS011;269;48.884;9.192;2023-12-20T01:37:31;3.38;;;3.17;;
568;SDS011;269;48.884;9.192;2023-12-20T01:39:58;3.22;;;2.95;;
568;SDS011;269;48.884;9.192;2023-12-20T01:42:26;3.00;;;2.80;;
568;SDS011;269;48.884;9.192;2023-12-20T01:44:52;3.40;;;3.10;;
568;SDS011;269;48.884;9.192;2023-12-20T01:47:19;3.35;;;3.15;;
568;SDS011;269;48.884;9.192;2023-12-20T01:49:46;3.70;;;3.40;;
568;SDS011;269;48.884;9.192;2023-12-20T01:52:13;3.67;;;3.38;;
568;SDS011;269;48.884;9.192;2023-12-20T01:54:40;3.92;;;3.38;;
568;SDS011;269;48.884;9.192;2023-12-20T01:57:06;3.10;;;2.80;;
568;SDS011;269;48.884;9.192;2023-12-20T01:59:35;4.72;;;3.03;;
568;SDS011;269;48.884;9.192;2023-12-20T02:02:03;3.00;;;2.80;;
568;SDS011;269;48.884;9.192;2023-12-20T02:04:30;2.80;;;2.60;;
568;SDS011;269;48.884;9.192;2023-12-20T02:06:56;2.78;;;2.58;;
568;SDS011;269;48.884;9.192;2023-12-20T02:09:24;3.00;;;2.80;;
568;SDS011;269;48.884;9.192;2023-12-20T02:11:51;3.47;;;3.22;;
568;SDS011;269;48.884;9.192;2023-12-20T02:14:17;2.63;;;2.42;;
568;SDS011;269;48.884;9.192;2023-12-20T02:16:45;2.80;;;2.60;;
568;SDS011;269;48.884;9.192;2023-12-20T02:19:13;3.63;;;3.33;;
568;SDS011;269;48.884;9.192;2023-12-20T02:21:41;3.33;;;3.03;;
568;SDS011;269;48.884;9.192;2023-12-20T02:24:07;2.92;;;2.72;;
568;SDS011;269;48.884;9.192;2023-12-20T02:26:34;3.20;;;2.80;;
568;SDS011;269;48.884;9.192;2023-12-20T02:29:01;2.03;;;1.90;;
568;SDS011;269;48.884;9.192;2023-12-20T02:31:27;2.38;;;2.25;;
568;SDS011;269;48.884;9.192;2023-12-20T02:33:54;1.88;;;1.77;;
568;SDS011;269;48.884;9.192;2023-12-20T02:36:20;1.80;;;1.70;;
568;SDS011;269;48.884;9.192;2023-12-20T02:38:48;1.67;;;1.58;;
568;SDS011;269;48.884;9.192;2023-12-20T02:41:15;1.20;;;1.10;;
568;SDS011;269;48.884;9.192;2023-12-20T02:43:43;1.10;;;1.05;;
568;SDS011;269;48.884;9.192;2023-12-20T02:46:10;1.13;;;1.02;;
568;SDS011;269;48.884;9.192;2023-12-20T02:48:38;0.93;;;0.80;;
568;SDS011;269;48.884;9.192;2023-12-20T02:51:04;1.45;;;1.00;;
568;SDS011;269;48.884;9.192;2023-12-20T02:53:31;1.50;;;0.93;;
568;SDS011;269;48.884;9.192;2023-12-20T02:55:59;0.85;;;0.85;;
568;SDS011;269;48.884;9.192;2023-12-20T02:58:25;0.60;;;0.60;;
568;SDS011;269;48.884;9.192;2023-12-20T03:00:52;0.80;;;0.80;;
568;SDS011;269;48.884;9.192;2023-12-20T03:03:19;0.80;;;0.77;;
568;SDS011;269;48.884;9.192;2023-12-20T03:05:46;0.88;;;0.80;;
568;SDS011;269;48.884;9.192;2023-12-20T03:08:12;0.98;;;0.85;;
568;SDS011;269;48.884;9.192;2023-12-20T03:10:39;0.80;;;0.80;;
568;SDS011;269;48.884;9.192;2023-12-20T03:13:07;0.90;;;0.80;;
568;SDS011;269;48.884;9.192;2023-12-20T03:15:34;0.80;;;0.80;;
568;SDS011;269;48.884;9.192;2023-12-20T03:18:01;1.05;;;0.80;;
568;SDS011;269;48.884;9.192;2023-12-20T03:20:28;0.80;;;0.80;;
568;SDS011;269;48.884;9.192;2023-12-20T03:22:56;1.00;;;0.93;;
568;SDS011;269;48.884;9.192;2023-12-20T03:25:23;0.82;;;0.80;;
568;SDS011;269;48.884;9.192;2023-12-20T03:27:50;0.82;;;0.77;;
568;SDS011;269;48.884;9.192;2023-12-20T03:30:17;0.75;;;0.75;;
568;SDS011;269;48.884;9.192;2023-12-20T03:32:44;1.17;;;1.08;;
568;SDS011;269;48.884;9.192;2023-12-20T03:35:11;0.70;;;0.70;;
568;SDS011;269;48.884;9.192;2023-12-20T03:37:37;0.70;;;0.70;;
568;SDS011;269;48.884;9.192;2023-12-20T03:40:04;1.00;;;0.90;;
568;SDS011;269;48.884;9.192;2023-12-20T03:42:32;0.90;;;0.70;;
568;SDS011;269;48.884;9.192;2023-12-20T03:44:58;1.00;;;1.00;;
568;SDS011;269;48.884;9.192;2023-12-20T03:47:26;0.90;;;0.90;;
568;SDS011;269;48.884;9.192;2023-12-20T03:49:52;0.80;;;0.80;;
568;SDS011;269;48.884;9.192;2023-12-20T03:52:20;0.98;;;0.98;;
568;SDS011;269;48.884;9.192;2023-12-20T03:54:47;1.55;;;1.00;;
568;SDS011;269;48.884;9.192;2023-12-20T03:57:13;0.80;;;0.80;;
568;SDS011;269;48.884;9.192;2023-12-20T03:59:40;0.80;;;0.70;;
568;SDS011;269;48.884;9.192;2023-12-20T04:02:08;0.68;;;0.68;;
568;SDS011;269;48.884;9.192;2023-12-20T04:04:36;0.70;;;0.70;;
568;SDS011;269;48.884;9.192;2023-12-20T04:07:03;0.80;;;0.77;;
568;SDS011;269;48.884;9.192;2023-12-20T04:09:30;1.17;;;0.73;;
568;SDS011;269;48.884;9.192;2023-12-20T04:11:56;0.70;;;0.70;;
568;SDS011;269;48.884;9.192;2023-12-20T04:14:23;0.93;;;0.93;;
568;SDS011;269;48.884;9.192;2023-12-20T04:16:50;1.42;;;1.08;;
568;SDS011;269;48.884;9.192;2023-12-20T04:19:17;0.90;;;0.90;;
568;SDS011;269;48.884;9.192;2023-12-20T04:21:45;0.90;;;0.65;;
568;SDS011;269;48.884;9.192;2023-12-20T04:24:11;0.90;;;0.90;;
568;SDS011;269;48.884;9.192;2023-12-20T04:26:38;0.90;;;0.80;;
568;SDS011;269;48.884;9.192;2023-12-20T04:29:05;0.90;;;0.90;;
568;SDS011;269;48.884;9.192;2023-12-20T04:31:32;0.70;;;0.70;;
568;SDS011;269;48.884;9.192;2023-12-20T04:33:58;1.20;;;1.10;;
568;SDS011;269;48.884;9.192;2023-12-20T04:36:25;0.80;;;0.80;;
568;SDS011;269;48.884;9.192;2023-12-20T04:38:56;0.90;;;0.80;;
568;SDS011;269;48.884;9.192;2023-12-20T04:41:22;0.70;;;0.70;;
568;SDS011;269;48.884;9.192;2023-12-20T04:43:49;0.75;;;0.75;;
568;SDS011;269;48.884;9.192;2023-12-20T04:46:16;1.00;;;0.90;;
568;SDS011;269;48.884;9.192;2023-12-20T04:48:43;1.33;;;0.90;;
568;SDS011;269;48.884;9.192;2023-12-20T04:51:09;1.27;;;0.90;;
568;SDS011;269;48.884;9.192;2023-12-20T04:53:36;1.25;;;0.90;;
568;SDS011;269;48.884;9.192;2023-12-20T04:56:05;1.30;;;1.00;;
568;SDS011;269;48.884;9.192;2023-12-20T04:58:32;0.80;;;0.80;;
568;SDS011;269;48.884;9.192;2023-12-20T05:00:59;1.05;;;0.90;;
568;SDS011;269;48.884;9.192;2023-12-20T05:03:25;0.90;;;0.80;;
568;SDS011;269;48.884;9.192;2023-12-20T05:05:52;0.80;;;0.80;;
568;SDS011;269;48.884;9.192;2023-12-20T05:08:19;1.10;;;1.00;;
568;SDS011;269;48.884;9.192;2023-12-20T05:10:46;1.10;;;1.00;;
568;SDS011;269;48.884;9.192;2023-12-20T05:13:14;0.88;;;0.88;;
568;SDS011;269;48.884;9.192;2023-12-20T05:15:40;0.90;;;0.90;;
568;SDS011;269;48.884;9.192;2023-12-20T05:18:07;1.20;;;1.10;;
568;SDS011;269;48.884;9.192;2023-12-20T05:20:33;1.15;;;1.05;;
568;SDS011;269;48.884;9.192;2023-12-20T05:23:02;1.65;;;1.20;;
568;SDS011;269;48.884;9.192;2023-12-20T05:25:29;1.60;;;1.50;;
568;SDS011;269;48.884;9.192;2023-12-20T05:27:56;1.38;;;1.27;;
568;SDS011;269;48.884;9.192;2023-12-20T05:30:25;1.70;;;1.60;;
568;SDS011;269;48.884;9.192;2023-12-20T05:32:51;1.92;;;1.80;;
568;SDS011;269;48.884;9.192;2023-12-20T05:35:18;2.00;;;1.90;;
568;SDS011;269;48.884;9.192;2023-12-20T05:37:45;2.35;;;2.05;;
568;SDS011;269;48.884;9.192;2023-12-20T05:40:11;2.67;;;2.47;;
568;SDS011;269;48.884;9.192;2023-12-20T05:42:38;2.70;;;2.50;;
568;SDS011;269;48.884;9.192;2023-12-20T05:45:05;2.88;;;2.67;;
568;SDS011;269;48.884;9.192;2023-12-20T05:47:33;3.20;;;3.00;;
568;SDS011;269;48.884;9.192;2023-12-20T05:50:00;3.22;;;3.03;;
568;SDS011;269;48.884;9.192;2023-12-20T05:52:27;2.75;;;2.55;;
568;SDS011;269;48.884;9.192;2023-12-20T05:54:53;3.20;;;2.90;;
568;SDS011;269;48.884;9.192;2023-12-20T05:57:21;2.80;;;2.60;;
568;SDS011;269;48.884;9.192;2023-12-20T05:59:49;2.83;;;2.63;;
568;SDS011;269;48.884;9.192;2023-12-20T06:02:16;2.88;;;2.67;;
568;SDS011;269;48.884;9.192;2023-12-20T06:04:44;2.70;;;2.50;;
568;SDS011;269;48.884;9.192;2023-12-20T06:07:11;2.75;;;2.55;;
568;SDS011;269;48.884;9.192;2023-12-20T06:09:38;2.30;;;2.10;;
568;SDS011;269;48.884;9.192;2023-12-20T06:12:05;2.50;;;2.30;;
568;SDS011;269;48.884;9.192;2023-12-20T06:14:35;2.20;;;2.10;;
568;SDS011;269;48.884;9.192;2023-12-20T06:17:02;2.30;;;2.20;;
568;SDS011;269;48.884;9.192;2023-12-20T06:19:29;2.60;;;2.40;;
568;SDS011;269;48.884;9.192;2023-12-20T06:21:57;2.75;;;2.55;;
568;SDS011;269;48.884;9.192;2023-12-20T06:24:23;3.10;;;2.90;;
568;SDS011;269;48.884;9.192;2023-12-20T06:26:53;2.45;;;2.22;;
568;SDS011;269;48.884;9.192;2023-12-20T06:29:19;2.90;;;2.70;;
568;SDS011;269;48.884;9.192;2023-12-20T06:31:46;3.42;;;3.13;;
568;SDS011;269;48.884;9.192;2023-12-20T06:34:12;3.67;;;3.38;;
568;SDS011;269;48.884;9.192;2023-12-20T06:36:39;3.75;;;3.45;;
568;SDS011;269;48.884;9.192;2023-12-20T06:39:07;3.60;;;3.40;;
568;SDS011;269;48.884;9.192;2023-12-20T06:41:34;3.75;;;3.50;;
568;SDS011;269;48.884;9.192;2023-12-20T06:44:01;3.50;;;3.30;;
568;SDS011;269;48.884;9.192;2023-12-20T06:46:27;4.05;;;3.75;;
568;SDS011;269;48.884;9.192;2023-12-20T06:48:54;4.80;;;4.45;;
568;SDS011;269;48.884;9.192;2023-12-20T06:51:20;5.30;;;4.80;;
568;SDS011;269;48.884;9.192;2023-12-20T06:53:50;5.25;;;4.85;;
568;SDS011;269;48.884;9.192;2023-12-20T06:56:18;4.80;;;4.47;;
568;SDS011;269;48.884;9.192;2023-12-20T06:58:44;5.38;;;4.97;;
568;SDS011;269;48.884;9.192;2023-12-20T07:01:11;5.93;;;5.53;;
568;SDS011;269;48.884;9.192;2023-12-20T07:03:38;5.30;;;4.80;;
568;SDS011;269;48.884;9.192;2023-12-20T07:06:04;5.82;;;5.43;;
568;SDS011;269;48.884;9.192;2023-12-20T07:08:31;5.85;;;5.38;;
568;SDS011;269;48.884;9.192;2023-12-20T07:10:59;6.47;;;6.07;;
568;SDS011;269;48.884;9.192;2023-12-20T07:13:28;6.88;;;6.38;;
568;SDS011;269;48.884;9.192;2023-12-20T07:15:54;7.00;;;6.50;;
568;SDS011;269;48.884;9.192;2023-12-20T07:18:21;7.47;;;6.82;;
568;SDS011;269;48.884;9.192;2023-12-20T07:20:48;7.68;;;7.07;;
568;SDS011;269;48.884;9.192;2023-12-20T07:23:15;7.40;;;6.80;;
568;SDS011;269;48.884;9.192;2023-12-20T07:25:42;7.70;;;7.10;;
568;SDS011;269;48.884;9.192;2023-12-20T07:28:08;7.90;;;7.30;;
568;SDS011;269;48.884;9.192;2023-12-20T07:30:37;8.07;;;7.47;;
568;SDS011;269;48.884;9.192;2023-12-20T07:33:03;7.65;;;6.97;;
568;SDS011;269;48.884;9.192;2023-12-20T07:35:33;6.97;;;6.38;;
568;SDS011;269;48.884;9.192;2023-12-20T07:37:59;6.80;;;6.30;;
568;SDS011;269;48.884;9.192;2023-12-20T07:40:27;7.05;;;6.55;;
568;SDS011;269;48.884;9.192;2023-12-20T07:42:54;6.68;;;6.18;;
568;SDS011;269;48.884;9.192;2023-12-20T07:45:20;5.97;;;5.57;;
568;SDS011;269;48.884;9.192;2023-12-20T07:47:48;5.60;;;5.20;;
568;SDS011;269;48.884;9.192;2023-12-20T07:50:15;5.53;;;5.22;;
568;SDS011;269;48.884;9.192;2023-12-20T07:52:42;5.13;;;4.80;;
568;SDS011;269;48.884;9.192;2023-12-20T07:55:09;4.80;;;4.40;;
568;SDS011;269;48.884;9.192;2023-12-20T07:57:35;4.93;;;4.60;;
568;SDS011;269;48.884;9.192;2023-12-20T08:00:03;4.78;;;4.40;;
568;SDS011;269;48.884;9.192;2023-12-20T08:02:30;5.70;;;5.30;;
568;SDS011;269;48.884;9.192;2023-12-20T08:04:58;5.60;;;5.20;;
568;SDS011;269;48.884;9.192;2023-12-20T08:07:25;5.25;;;4.85;;
568;SDS011;269;48.884;9.192;2023-12-20T08:09:51;5.47;;;5.07;;
568;SDS011;269;48.884;9.192;2023-12-20T08:12:20;5.25;;;4.85;;
568;SDS011;269;48.884;9.192;2023-12-20T08:14:46;4.95;;;4.55;;
568;SDS011;269;48.884;9.192;2023-12-20T08:17:13;5.05;;;4.65;;
568;SDS011;269;48.884;9.192;2023-12-20T08:19:41;4.25;;;3.95;;
568;SDS011;269;48.884;9.192;2023-12-20T08:22:09;4.53;;;4.22;;
568;SDS011;269;48.884;9.192;2023-12-20T08:24:35;4.78;;;4.35;;
568;SDS011;269;48.884;9.192;2023-12-20T08:27:02;5.38;;;4.55;;
568;SDS011;269;48.884;9.192;2023-12-20T08:29:29;4.88;;;4.45;;
568;SDS011;269;48.884;9.192;2023-12-20T08:31:56;4.20;;;3.90;;
568;SDS011;269;48.884;9.192;2023-12-20T08:34:23;5.88;;;4.40;;
568;SDS011;269;48.884;9.192;2023-12-20T08:36:50;4.43;;;4.03;;
568;SDS011;269;48.884;9.192;2023-12-20T08:39:18;3.95;;;3.60;;
568;SDS011;269;48.884;9.192;2023-12-20T08:41:44;4.20;;;3.90;;
568;SDS011;269;48.884;9.192;2023-12-20T08:44:11;4.15;;;3.75;;
568;SDS011;269;48.884;9.192;2023-12-20T08:46:38;4.45;;;3.88;;
568;SDS011;269;48.884;9.192;2023-12-20T08:49:05;4.07;;;3.65;;
568;SDS011;269;48.884;9.192;2023-12-20T08:51:32;3.88;;;3.58;;
568;SDS011;269;48.884;9.192;2023-12-20T08:53:59;3.60;;;3.30;;
568;SDS011;269;48.884;9.192;2023-12-20T08:56:27;3.35;;;3.15;;
568;SDS011;269;48.884;9.192;2023-12-20T08:58:53;2.90;;;2.60;;
568;SDS011;269;48.884;9.192;2023-12-20T09:01:20;2.92;;;2.72;;
568;SDS011;269;48.884;9.192;2023-12-20T09:03:46;3.60;;;2.55;;
568;SDS011;269;48.884;9.192;2023-12-20T09:06:13;2.90;;;2.70;;
568;SDS011;269;48.884;9.192;2023-12-20T09:08:40;3.38;;;3.05;;
568;SDS011;269;48.884;9.192;2023-12-20T09:11:08;3.05;;;2.78;;
568;SDS011;269;48.884;9.192;2023-12-20T09:13:36;3.08;;;2.88;;
568;SDS011;269;48.884;9.192;2023-12-20T09:16:03;2.95;;;2.65;;
568;SDS011;269;48.884;9.192;2023-12-20T09:18:30;2.50;;;2.30;;
568;SDS011;269;48.884;9.192;2023-12-20T09:20:57;2.33;;;2.15;;
568;SDS011;269;48.884;9.192;2023-12-20T09:23:25;2.20;;;2.10;;
568;SDS011;269;48.884;9.192;2023-12-20T09:25:51;2.33;;;2.13;;
568;SDS011;269;48.884;9.192;2023-12-20T09:28:18;3.78;;;2.60;;
568;SDS011;269;48.884;9.192;2023-12-20T09:30:48;1.90;;;1.70;;
568;SDS011;269;48.884;9.192;2023-12-20T09:33:14;2.30;;;2.00;;
568;SDS011;269;48.884;9.192;2023-12-20T09:35:41;3.40;;;1.90;;
568;SDS011;269;48.884;9.192;2023-12-20T09:38:08;2.85;;;1.95;;
568;SDS011;269;48.884;9.192;2023-12-20T09:40:34;2.75;;;1.67;;
568;SDS011;269;48.884;9.192;2023-12-20T09:43:03;1.70;;;1.60;;
568;SDS011;269;48.884;9.192;2023-12-20T09:45:31;3.05;;;1.63;;
568;SDS011;269;48.884;9.192;2023-12-20T09:47:59;3.50;;;1.73;;
568;SDS011;269;48.884;9.192;2023-12-20T09:50:25;1.50;;;1.40;;
568;SDS011;269;48.884;9.192;2023-12-20T09:52:52;3.03;;;1.73;;
568;SDS011;269;48.884;9.192;2023-12-20T09:55:21;3.50;;;1.60;;
568;SDS011;269;48.884;9.192;2023-12-20T09:57:48;1.63;;;1.50;;
568;SDS011;269;48.884;9.192;2023-12-20T10:00:15;2.83;;;1.40;;
568;SDS011;269;48.884;9.192;2023-12-20T10:02:45;3.03;;;1.38;;
568;SDS011;269;48.884;9.192;2023-12-20T10:05:16;3.45;;;1.77;;
568;SDS011;269;48.884;9.192;2023-12-20T10:07:44;2.42;;;1.30;;
568;SDS011;269;48.884;9.192;2023-12-20T10:10:12;3.75;;;1.50;;
568;SDS011;269;48.884;9.192;2023-12-20T10:12:39;3.72;;;1.50;;
568;SDS011;269;48.884;9.192;2023-12-20T10:15:06;3.67;;;1.67;;
568;SDS011;269;48.884;9.192;2023-12-20T10:17:35;3.95;;;1.65;;
568;SDS011;269;48.884;9.192;2023-12-20T10:20:02;3.33;;;1.70;;
568;SDS011;269;48.884;9.192;2023-12-20T10:22:35;2.20;;;1.63;;
568;SDS011;269;48.884;9.192;2023-12-20T10:25:03;3.70;;;1.40;;
568;SDS011;269;48.884;9.192;2023-12-20T10:27:30;4.22;;;1.98;;
568;SDS011;269;48.884;9.192;2023-12-20T10:29:58;4.60;;;1.63;;
568;SDS011;269;48.884;9.192;2023-12-20T10:32:25;4.25;;;1.58;;
568;SDS011;269;48.884;9.192;2023-12-20T10:34:52;3.78;;;1.80;;
568;SDS011;269;48.884;9.192;2023-12-20T10:37:20;3.50;;;1.90;;
568;SDS011;269;48.884;9.192;2023-12-20T10:39:49;3.88;;;1.98;;
568;SDS011;269;48.884;9.192;2023-12-20T10:42:17;4.78;;;1.70;;
568;SDS011;269;48.884;9.192;2023-12-20T10:44:44;3.30;;;1.63;;
568;SDS011;269;48.884;9.192;2023-12-20T10:47:12;5.00;;;2.05;;
568;SDS011;269;48.884;9.192;2023-12-20T10:49:39;3.35;;;1.83;;
568;SDS011;269;48.884;9.192;2023-12-20T10:52:06;4.05;;;1.52;;
568;SDS011;269;48.884;9.192;2023-12-20T10:54:34;3.25;;;1.50;;
568;SDS011;269;48.884;9.192;2023-12-20T10:57:02;4.28;;;1.67;;
568;SDS011;269;48.884;9.192;2023-12-20T10:59:32;4.22;;;1.67;;
568;SDS011;269;48.884;9.192;2023-12-20T11:01:59;3.00;;;1.40;;
568;SDS011;269;48.884;9.192;2023-12-20T11:04:31;2.28;;;1.20;;
568;SDS011;269;48.884;9.192;2023-12-20T11:07:04;6.85;;;1.67;;
568;SDS011;269;48.884;9.192;2023-12-20T11:09:35;2.58;;;1.40;;
568;SDS011;269;48.884;9.192;2023-12-20T11:12:07;3.65;;;1.30;;
568;SDS011;269;48.884;9.192;2023-12-20T11:14:38;4.60;;;1.65;;
568;SDS011;269;48.884;9.192;2023-12-20T11:17:07;3.03;;;1.58;;
568;SDS011;269;48.884;9.192;2023-12-20T11:19:38;4.07;;;1.80;;
568;SDS011;269;48.884;9.192;2023-12-20T11:22:14;2.38;;;1.40;;
568;SDS011;269;48.884;9.192;2023-12-20T11:24:44;4.35;;;1.52;;
568;SDS011;269;48.884;9.192;2023-12-20T11:27:14;3.17;;;1.52;;
568;SDS011;269;48.884;9.192;2023-12-20T11:29:51;4.00;;;1.77;;
568;SDS011;269;48.884;9.192;2023-12-20T11:32:28;5.05;;;1.98;;
568;SDS011;269;48.884;9.192;2023-12-20T11:34:55;4.20;;;1.55;;
568;SDS011;269;48.884;9.192;2023-12-20T11:37:22;3.05;;;1.90;;
568;SDS011;269;48.884;9.192;2023-12-20T11:39:54;3.83;;;2.20;;
568;SDS011;269;48.884;9.192;2023-12-20T11:42:23;4.90;;;1.90;;
568;SDS011;269;48.884;9.192;2023-12-20T11:44:50;2.72;;;1.90;;
568;SDS011;269;48.884;9.192;2023-12-20T11:47:16;4.85;;;3.10;;
568;SDS011;269;48.884;9.192;2023-12-20T11:49:44;2.78;;;1.75;;
568;SDS011;269;48.884;9.192;2023-12-20T11:52:12;6.22;;;2.45;;
568;SDS011;269;48.884;9.192;2023-12-20T11:54:38;6.43;;;2.28;;
568;SDS011;269;48.884;9.192;2023-12-20T11:57:05;4.90;;;2.60;;
568;SDS011;269;48.884;9.192;2023-12-20T11:59:33;7.20;;;2.00;;
568;SDS011;269;48.884;9.192;2023-12-20T12:01:59;3.90;;;1.95;;
568;SDS011;269;48.884;9.192;2023-12-20T12:04:27;3.10;;;1.70;;
568;SDS011;269;48.884;9.192;2023-12-20T12:06:55;3.25;;;2.13;;
568;SDS011;269;48.884;9.192;2023-12-20T12:09:21;3.25;;;2.10;;
568;SDS011;269;48.884;9.192;2023-12-20T12:11:49;4.97;;;2.10;;
568;SDS011;269;48.884;9.192;2023-12-20T12:14:16;4.47;;;2.00;;
568;SDS011;269;48.884;9.192;2023-12-20T12:16:45;5.45;;;2.83;;
568;SDS011;269;48.884;9.192;2023-12-20T12:19:20;3.17;;;2.17;;
568;SDS011;269;48.884;9.192;2023-12-20T12:21:47;7.03;;;2.78;;
568;SDS011;269;48.884;9.192;2023-12-20T12:24:13;5.55;;;2.15;;
568;SDS011;269;48.884;9.192;2023-12-20T12:26:40;4.45;;;1.95;;
568;SDS011;269;48.884;9.192;2023-12-20T12:29:07;4.45;;;1.70;;
568;SDS011;269;48.884;9.192;2023-12-20T12:31:34;4.53;;;2.08;;
568;SDS011;269;48.884;9.192;2023-12-20T12:34:02;3.83;;;2.10;;
568;SDS011;269;48.884;9.192;2023-12-20T12:36:29;6.07;;;1.70;;
568;SDS011;269;48.884;9.192;2023-12-20T12:38:56;3.20;;;1.75;;
568;SDS011;269;48.884;9.192;2023-12-20T12:41:22;4.80;;;1.90;;
568;SDS011;269;48.884;9.192;2023-12-20T12:43:49;3.60;;;1.60;;
568;SDS011;269;48.884;9.192;2023-12-20T12:46:16;2.75;;;1.70;;
568;SDS011;269;48.884;9.192;2023-12-20T12:48:43;5.50;;;2.00;;
568;SDS011;269;48.884;9.192;2023-12-20T12:51:11;4.15;;;1.95;;
568;SDS011;269;48.884;9.192;2023-12-20T12:53:38;3.63;;;1.70;;
568;SDS011;269;48.884;9.192;2023-12-20T12:56:05;3.00;;;1.58;;
568;SDS011;269;48.884;9.192;2023-12-20T12:58:32;5.10;;;2.58;;
568;SDS011;269;48.884;9.192;2023-12-20T13:00:58;3.60;;;2.17;;
568;SDS011;269;48.884;9.192;2023-12-20T13:03:25;4.10;;;1.60;;
568;SDS011;269;48.884;9.192;2023-12-20T13:05:51;6.25;;;2.20;;
568;SDS011;269;48.884;9.192;2023-12-20T13:08:19;4.15;;;2.08;;
568;SDS011;269;48.884;9.192;2023-12-20T13:10:46;4.57;;;1.90;;
568;SDS011;269;48.884;9.192;2023-12-20T13:13:12;3.08;;;1.55;;
568;SDS011;269;48.884;9.192;2023-12-20T13:15:39;3.35;;;1.60;;
568;SDS011;269;48.884;9.192;2023-12-20T13:18:06;2.15;;;1.40;;
568;SDS011;269;48.884;9.192;2023-12-20T13:20:32;6.10;;;1.70;;
568;SDS011;269;48.884;9.192;2023-12-20T13:22:59;5.22;;;1.98;;
568;SDS011;269;48.884;9.192;2023-12-20T13:25:27;5.28;;;1.80;;
568;SDS011;269;48.884;9.192;2023-12-20T13:27:53;3.17;;;1.65;;
568;SDS011;269;48.884;9.192;2023-12-20T13:30:20;2.60;;;1.42;;
568;SDS011;269;48.884;9.192;2023-12-20T13:32:47;4.25;;;1.88;;
568;SDS011;269;48.884;9.192;2023-12-20T13:35:14;4.93;;;1.90;;
568;SDS011;269;48.884;9.192;2023-12-20T13:37:41;3.85;;;1.73;;
568;SDS011;269;48.884;9.192;2023-12-20T13:40:07;2.63;;;1.50;;
568;SDS011;269;48.884;9.192;2023-12-20T13:42:36;2.15;;;1.20;;
568;SDS011;269;48.884;9.192;2023-12-20T13:45:03;4.95;;;1.70;;
568;SDS011;269;48.884;9.192;2023-12-20T13:47:32;3.35;;;1.75;;
568;SDS011;269;48.884;9.192;2023-12-20T13:49:59;3.55;;;1.92;;
568;SDS011;269;48.884;9.192;2023-12-20T13:52:26;4.60;;;1.90;;
568;SDS011;269;48.884;9.192;2023-12-20T13:54:53;3.58;;;1.80;;
568;SDS011;269;48.884;9.192;2023-12-20T13:57:19;4.57;;;1.88;;
568;SDS011;269;48.884;9.192;2023-12-20T13:59:47;4.00;;;2.55;;
568;SDS011;269;48.884;9.192;2023-12-20T14:02:14;4.25;;;1.85;;
568;SDS011;269;48.884;9.192;2023-12-20T14:04:41;4.68;;;1.70;;
568;SDS011;269;48.884;9.192;2023-12-20T14:07:08;3.47;;;1.73;;
568;SDS011;269;48.884;9.192;2023-12-20T14:09:35;2.97;;;1.52;;
568;SDS011;269;48.884;9.192;2023-12-20T14:12:03;3.42;;;1.45;;
568;SDS011;269;48.884;9.192;2023-12-20T14:14:30;3.97;;;1.52;;
568;SDS011;269;48.884;9.192;2023-12-20T14:16:58;3.92;;;2.10;;
568;SDS011;269;48.884;9.192;2023-12-20T14:19:24;5.00;;;2.03;;
568;SDS011;269;48.884;9.192;2023-12-20T14:21:52;3.90;;;1.85;;
568;SDS011;269;48.884;9.192;2023-12-20T14:24:19;4.85;;;2.10;;
568;SDS011;269;48.884;9.192;2023-12-20T14:26:46;5.35;;;2.38;;
568;SDS011;269;48.884;9.192;2023-12-20T14:29:12;3.50;;;2.17;;
568;SDS011;269;48.884;9.192;2023-12-20T14:31:39;3.28;;;2.17;;
568;SDS011;269;48.884;9.192;2023-12-20T14:34:07;7.88;;;2.67;;
568;SDS011;269;48.884;9.192;2023-12-20T14:36:34;3.85;;;2.13;;
568;SDS011;269;48.884;9.192;2023-12-20T14:39:00;6.40;;;2.55;;
568;SDS011;269;48.884;9.192;2023-12-20T14:41:28;5.43;;;2.20;;
568;SDS011;269;48.884;9.192;2023-12-20T14:43:54;3.13;;;2.75;;
568;SDS011;269;48.884;9.192;2023-12-20T14:46:21;3.55;;;2.03;;
568;SDS011;269;48.884;9.192;2023-12-20T14:48:48;9.40;;;2.67;;
568;SDS011;269;48.884;9.192;2023-12-20T14:51:16;5.63;;;2.15;;
568;SDS011;269;48.884;9.192;2023-12-20T14:53:42;3.45;;;2.10;;
568;SDS011;269;48.884;9.192;2023-12-20T14:56:09;2.38;;;1.80;;
568;SDS011;269;48.884;9.192;2023-12-20T14:58:36;4.03;;;2.67;;
568;SDS011;269;48.884;9.192;2023-12-20T15:01:03;4.60;;;2.17;;
568;SDS011;269;48.884;9.192;2023-12-20T15:03:33;3.67;;;2.00;;
568;SDS011;269;48.884;9.192;2023-12-20T15:06:00;4.05;;;1.98;;
568;SDS011;269;48.884;9.192;2023-12-20T15:08:28;4.90;;;2.05;;
568;SDS011;269;48.884;9.192;2023-12-20T15:10:55;6.88;;;1.90;;
568;SDS011;269;48.884;9.192;2023-12-20T15:13:22;4.07;;;1.83;;
568;SDS011;269;48.884;9.192;2023-12-20T15:15:49;4.57;;;2.22;;
568;SDS011;269;48.884;9.192;2023-12-20T15:18:15;5.07;;;2.50;;
568;SDS011;269;48.884;9.192;2023-12-20T15:20:43;10.05;;;2.50;;
568;SDS011;269;48.884;9.192;2023-12-20T15:23:10;3.58;;;2.65;;
568;SDS011;269;48.884;9.192;2023-12-20T15:25:41;5.10;;;2.45;;
568;SDS011;269;48.884;9.192;2023-12-20T15:28:08;6.65;;;2.45;;
568;SDS011;269;48.884;9.192;2023-12-20T15:30:36;3.20;;;2.10;;
568;SDS011;269;48.884;9.192;2023-12-20T15:33:03;6.15;;;2.20;;
568;SDS011;269;48.884;9.192;2023-12-20T15:35:30;7.72;;;2.53;;
568;SDS011;269;48.884;9.192;2023-12-20T15:37:56;6.93;;;2.72;;
568;SDS011;269;48.884;9.192;2023-12-20T15:40:24;5.70;;;2.10;;
568;SDS011;269;48.884;9.192;2023-12-20T15:42:52;5.22;;;2.00;;
568;SDS011;269;48.884;9.192;2023-12-20T15:45:20;5.65;;;2.17;;